sensor_id;sensor_type;location;lat;lon;timestamp;pressure;altitude;pressure_sealevel;temperature;humidity
61571;BME280;47463;49.884;10.010;2023-02-28T00:00:01;103100;;;-2.8;84
61571;BME280;47463;49.884;10.010;2023-02-28T00:05:01;103109.99999999999;;;-3;85
61571;BME280;47463;49.884;10.010;2023-02-28T00:10:01;103100;;;-3.1;85
61571;BME280;47463;49.884;10.010;2023-02-28T00:15:01;103090.00000000001;;;-3.2;86
61571;BME280;47463;49.884;10.010;2023-02-28T00:20:01;103100;;;-3.2;86
61571;BME280;47463;49.884;10.010;2023-02-28T00:25:01;103100;;;-3.2;86
61571;BME280;47463;49.884;10.010;2023-02-28T00:30:01;103100;;;-3.3;87
61571;BME280;47463;49.884;10.010;2023-02-28T00:35:01;103100;;;-3.4;87
61571;BME280;47463;49.884;10.010;2023-02-28T00:40:01;103100;;;-3.3;87
61571;BME280;47463;49.884;10.010;2023-02-28T00:45:01;103100;;;-3.3;87
61571;BME280;47463;49.884;10.010;2023-02-28T00:50:01;103100;;;-3.3;87
61571;BME280;47463;49.884;10.010;2023-02-28T00:55:01;103100;;;-3.3;86
61571;BME280;47463;49.884;10.010;2023-02-28T01:00:01;103090.00000000001;;;-3.3;87
61571;BME280;47463;49.884;10.010;2023-02-28T01:05:01;103090.00000000001;;;-3.3;87
61571;BME280;47463;49.884;10.010;2023-02-28T01:10:01;103090.00000000001;;;-3.3;86
61571;BME280;47463;49.884;10.010;2023-02-28T01:15:01;103090.00000000001;;;-3.3;86
61571;BME280;47463;49.884;10.010;2023-02-28T01:20:01;103090.00000000001;;;-3.4;87
61571;BME280;47463;49.884;10.010;2023-02-28T01:25:01;103100;;;-3.4;87
61571;BME280;47463;49.884;10.010;2023-02-28T01:30:01;103080;;;-3.4;86
61571;BME280;47463;49.884;10.010;2023-02-28T01:35:01;103080;;;-3.4;86
61571;BME280;47463;49.884;10.010;2023-02-28T01:40:01;103080;;;-3.4;86
61571;BME280;47463;49.884;10.010;2023-02-28T01:45:03;103090.00000000001;;;-3.5;86
61571;BME280;47463;49.884;10.010;2023-02-28T01:50:02;103080;;;-3.5;86
61571;BME280;47463;49.884;10.010;2023-02-28T01:55:01;103070;;;-3.5;86
61571;BME280;47463;49.884;10.010;2023-02-28T02:00:03;103059.99999999999;;;-3.5;86
61571;BME280;47463;49.884;10.010;2023-02-28T02:05:03;103059.99999999999;;;-3.5;86
61571;BME280;47463;49.884;10.010;2023-02-28T02:10:01;103070;;;-3.5;86
61571;BME280;47463;49.884;10.010;2023-02-28T02:15:02;103050;;;-3.6;86
61571;BME280;47463;49.884;10.010;2023-02-28T02:20:08;103050;;;-3.6;86
61571;BME280;47463;49.884;10.010;2023-02-28T02:25:11;103050;;;-3.7;86
61571;BME280;47463;49.884;10.010;2023-02-28T02:30:12;103040.00000000001;;;-3.7;86
61571;BME280;47463;49.884;10.010;2023-02-28T02:35:04;103030;;;-3.7;86
61571;BME280;47463;49.884;10.010;2023-02-28T02:40:04;103030;;;-3.8;87
61571;BME280;47463;49.884;10.010;2023-02-28T02:45:01;103030;;;-3.8;87
61571;BME280;47463;49.884;10.010;2023-02-28T02:50:02;103030;;;-3.9;87
61571;BME280;47463;49.884;10.010;2023-02-28T02:55:01;103040.00000000001;;;-3.9;87
61571;BME280;47463;49.884;10.010;2023-02-28T03:00:02;103040.00000000001;;;-4;87
61571;BME280;47463;49.884;10.010;2023-02-28T03:05:02;103040.00000000001;;;-3.9;87
61571;BME280;47463;49.884;10.010;2023-02-28T03:10:01;103050;;;-3.9;87
61571;BME280;47463;49.884;10.010;2023-02-28T03:15:04;103040.00000000001;;;-3.8;87
61571;BME280;47463;49.884;10.010;2023-02-28T03:20:02;103040.00000000001;;;-3.8;87
61571;BME280;47463;49.884;10.010;2023-02-28T03:25:02;103040.00000000001;;;-3.9;87
61571;BME280;47463;49.884;10.010;2023-02-28T03:30:02;103040.00000000001;;;-4.1;88
61571;BME280;47463;49.884;10.010;2023-02-28T03:35:01;103040.00000000001;;;-4.1;88
61571;BME280;47463;49.884;10.010;2023-02-28T03:40:01;103040.00000000001;;;-4.1;88
61571;BME280;47463;49.884;10.010;2023-02-28T03:45:02;103050;;;-4;88
61571;BME280;47463;49.884;10.010;2023-02-28T03:50:01;103040.00000000001;;;-4;88
61571;BME280;47463;49.884;10.010;2023-02-28T03:55:01;103050;;;-3.9;87
61571;BME280;47463;49.884;10.010;2023-02-28T04:00:03;103050;;;-3.9;87
61571;BME280;47463;49.884;10.010;2023-02-28T04:05:01;103050;;;-4;87
61571;BME280;47463;49.884;10.010;2023-02-28T04:10:01;103050;;;-4;87
61571;BME280;47463;49.884;10.010;2023-02-28T04:15:01;103050;;;-4;87
61571;BME280;47463;49.884;10.010;2023-02-28T04:20:01;103059.99999999999;;;-4.1;88
61571;BME280;47463;49.884;10.010;2023-02-28T04:25:01;103059.99999999999;;;-4.1;88
61571;BME280;47463;49.884;10.010;2023-02-28T04:30:01;103059.99999999999;;;-4.1;88
61571;BME280;47463;49.884;10.010;2023-02-28T04:35:01;103059.99999999999;;;-4.1;88
61571;BME280;47463;49.884;10.010;2023-02-28T04:40:01;103050;;;-4;87
61571;BME280;47463;49.884;10.010;2023-02-28T04:45:01;103050;;;-4;87
61571;BME280;47463;49.884;10.010;2023-02-28T04:50:01;103059.99999999999;;;-4;87
61571;BME280;47463;49.884;10.010;2023-02-28T04:55:01;103059.99999999999;;;-4;87
61571;BME280;47463;49.884;10.010;2023-02-28T05:00:01;103070;;;-4.1;87
61571;BME280;47463;49.884;10.010;2023-02-28T05:05:01;103059.99999999999;;;-4.1;87
61571;BME280;47463;49.884;10.010;2023-02-28T05:10:01;103059.99999999999;;;-4.1;87
61571;BME280;47463;49.884;10.010;2023-02-28T05:15:01;103059.99999999999;;;-4.1;87
61571;BME280;47463;49.884;10.010;2023-02-28T05:20:01;103059.99999999999;;;-4.2;87
61571;BME280;47463;49.884;10.010;2023-02-28T05:25:01;103059.99999999999;;;-4.2;87
61571;BME280;47463;49.884;10.010;2023-02-28T05:30:01;103070;;;-4.1;87
61571;BME280;47463;49.884;10.010;2023-02-28T05:35:01;103070;;;-4;86
61571;BME280;47463;49.884;10.010;2023-02-28T05:40:01;103070;;;-4;86
61571;BME280;47463;49.884;10.010;2023-02-28T05:45:01;103080;;;-4;86
61571;BME280;47463;49.884;10.010;2023-02-28T05:50:01;103080;;;-4.1;86
61571;BME280;47463;49.884;10.010;2023-02-28T05:55:01;103080;;;-4;85
61571;BME280;47463;49.884;10.010;2023-02-28T06:00:01;103090.00000000001;;;-3.9;84
61571;BME280;47463;49.884;10.010;2023-02-28T06:05:01;103100;;;-3.9;84
61571;BME280;47463;49.884;10.010;2023-02-28T06:10:01;103090.00000000001;;;-3.9;84
61571;BME280;47463;49.884;10.010;2023-02-28T06:15:01;103090.00000000001;;;-4;84
61571;BME280;47463;49.884;10.010;2023-02-28T06:20:01;103109.99999999999;;;-4;84
61571;BME280;47463;49.884;10.010;2023-02-28T06:25:01;103100;;;-4;84
61571;BME280;47463;49.884;10.010;2023-02-28T06:30:02;103109.99999999999;;;-3.9;84
61571;BME280;47463;49.884;10.010;2023-02-28T06:35:01;103109.99999999999;;;-3.8;84
61571;BME280;47463;49.884;10.010;2023-02-28T06:40:01;103120;;;-3.7;84
61571;BME280;47463;49.884;10.010;2023-02-28T06:45:01;103130;;;-3.6;83
61571;BME280;47463;49.884;10.010;2023-02-28T06:50:01;103130;;;-3.5;83
61571;BME280;47463;49.884;10.010;2023-02-28T06:55:01;103130;;;-3.5;83
61571;BME280;47463;49.884;10.010;2023-02-28T07:00:02;103140.00000000001;;;-3.4;82
61571;BME280;47463;49.884;10.010;2023-02-28T07:05:01;103130;;;-3.3;82
61571;BME280;47463;49.884;10.010;2023-02-28T07:10:01;103150;;;-3.1;82
61571;BME280;47463;49.884;10.010;2023-02-28T07:15:01;103150;;;-3;82
61571;BME280;47463;49.884;10.010;2023-02-28T07:20:01;103150;;;-2.9;81
61571;BME280;47463;49.884;10.010;2023-02-28T07:25:01;103159.99999999999;;;-2.8;81
61571;BME280;47463;49.884;10.010;2023-02-28T07:30:01;103159.99999999999;;;-2.5;81
61571;BME280;47463;49.884;10.010;2023-02-28T07:35:01;103159.99999999999;;;-2.4;80
61571;BME280;47463;49.884;10.010;2023-02-28T07:40:01;103159.99999999999;;;-2.3;80
61571;BME280;47463;49.884;10.010;2023-02-28T07:45:01;103159.99999999999;;;-2.2;79
61571;BME280;47463;49.884;10.010;2023-02-28T07:50:01;103159.99999999999;;;-2.1;79
61571;BME280;47463;49.884;10.010;2023-02-28T07:55:01;103159.99999999999;;;-2;79
61571;BME280;47463;49.884;10.010;2023-02-28T08:00:01;103150;;;-1.8;78
61571;BME280;47463;49.884;10.010;2023-02-28T08:05:01;103159.99999999999;;;-1.7;78
61571;BME280;47463;49.884;10.010;2023-02-28T08:10:01;103150;;;-1.6;78
61571;BME280;47463;49.884;10.010;2023-02-28T08:15:01;103159.99999999999;;;-1.5;78
61571;BME280;47463;49.884;10.010;2023-02-28T08:20:01;103150;;;-1.4;77
61571;BME280;47463;49.884;10.010;2023-02-28T08:25:01;103150;;;-1.3;77
61571;BME280;47463;49.884;10.010;2023-02-28T08:30:01;103150;;;-1.1;76
61571;BME280;47463;49.884;10.010;2023-02-28T08:35:01;103150;;;-0.9;76
61571;BME280;47463;49.884;10.010;2023-02-28T08:40:01;103150;;;-0.7;74
61571;BME280;47463;49.884;10.010;2023-02-28T08:45:01;103150;;;-0.7;74
61571;BME280;47463;49.884;10.010;2023-02-28T08:50:01;103150;;;-0.6;73
61571;BME280;47463;49.884;10.010;2023-02-28T08:55:01;103150;;;-0.4;73
61571;BME280;47463;49.884;10.010;2023-02-28T09:00:01;103150;;;-0.4;72
61571;BME280;47463;49.884;10.010;2023-02-28T09:05:01;103150;;;-0.3;72
61571;BME280;47463;49.884;10.010;2023-02-28T09:10:01;103150;;;-0.1;72
61571;BME280;47463;49.884;10.010;2023-02-28T09:15:01;103140.00000000001;;;-0.2;71
61571;BME280;47463;49.884;10.010;2023-02-28T09:20:01;103140.00000000001;;;-0.2;71
61571;BME280;47463;49.884;10.010;2023-02-28T09:25:01;103140.00000000001;;;0.2;70
61571;BME280;47463;49.884;10.010;2023-02-28T09:30:01;103120;;;0.2;69
61571;BME280;47463;49.884;10.010;2023-02-28T09:35:01;103130;;;0.5;68
61571;BME280;47463;49.884;10.010;2023-02-28T09:40:01;103130;;;0.5;66
61571;BME280;47463;49.884;10.010;2023-02-28T09:45:02;103130;;;0.7;66
61571;BME280;47463;49.884;10.010;2023-02-28T09:50:03;103140.00000000001;;;0.6;64
61571;BME280;47463;49.884;10.010;2023-02-28T09:55:04;103140.00000000001;;;0.6;63
61571;BME280;47463;49.884;10.010;2023-02-28T10:00:03;103130;;;0.9;64
61571;BME280;47463;49.884;10.010;2023-02-28T10:05:02;103130;;;0.7;64
61571;BME280;47463;49.884;10.010;2023-02-28T10:10:02;103120;;;0.7;63
61571;BME280;47463;49.884;10.010;2023-02-28T10:15:01;103140.00000000001;;;0.6;64
61571;BME280;47463;49.884;10.010;2023-02-28T10:20:02;103140.00000000001;;;0.8;64
61571;BME280;47463;49.884;10.010;2023-02-28T10:25:01;103150;;;0.9;63
61571;BME280;47463;49.884;10.010;2023-02-28T10:30:01;103140.00000000001;;;0.9;64
61571;BME280;47463;49.884;10.010;2023-02-28T10:35:06;103140.00000000001;;;1;62
61571;BME280;47463;49.884;10.010;2023-02-28T10:40:01;103130;;;0.8;63
61571;BME280;47463;49.884;10.010;2023-02-28T10:45:04;103130;;;0.7;63
61571;BME280;47463;49.884;10.010;2023-02-28T10:50:01;103130;;;0.9;64
61571;BME280;47463;49.884;10.010;2023-02-28T10:55:13;103130;;;0.8;64
61571;BME280;47463;49.884;10.010;2023-02-28T11:00:05;103140.00000000001;;;0.7;64
61571;BME280;47463;49.884;10.010;2023-02-28T11:05:01;103130;;;0.6;64
61571;BME280;47463;49.884;10.010;2023-02-28T11:10:01;103130;;;0.5;64
61571;BME280;47463;49.884;10.010;2023-02-28T11:15:01;103109.99999999999;;;0.6;64
61571;BME280;47463;49.884;10.010;2023-02-28T11:20:02;103130;;;0.7;64
61571;BME280;47463;49.884;10.010;2023-02-28T11:25:01;103120;;;0.7;64
61571;BME280;47463;49.884;10.010;2023-02-28T11:30:01;103120;;;0.7;64
61571;BME280;47463;49.884;10.010;2023-02-28T11:35:02;103109.99999999999;;;0.9;64
61571;BME280;47463;49.884;10.010;2023-02-28T11:40:01;103109.99999999999;;;0.8;63
61571;BME280;47463;49.884;10.010;2023-02-28T11:45:04;103100;;;1.1;63
61571;BME280;47463;49.884;10.010;2023-02-28T11:50:04;103120;;;1.4;61
61571;BME280;47463;49.884;10.010;2023-02-28T11:55:04;103109.99999999999;;;1.6;60
61571;BME280;47463;49.884;10.010;2023-02-28T12:00:03;103109.99999999999;;;1.8;60
61571;BME280;47463;49.884;10.010;2023-02-28T12:05:20;103109.99999999999;;;1.9;59
61571;BME280;47463;49.884;10.010;2023-02-28T12:10:03;103109.99999999999;;;2.1;59
61571;BME280;47463;49.884;10.010;2023-02-28T12:15:15;103100;;;2.2;59
61571;BME280;47463;49.884;10.010;2023-02-28T12:20:02;103100;;;1.9;57
61571;BME280;47463;49.884;10.010;2023-02-28T12:25:20;103090.00000000001;;;2.3;58
61571;BME280;47463;49.884;10.010;2023-02-28T12:30:02;103090.00000000001;;;2.1;57
61571;BME280;47463;49.884;10.010;2023-02-28T12:35:01;103080;;;2.1;57
61571;BME280;47463;49.884;10.010;2023-02-28T12:40:01;103080;;;2.3;57
61571;BME280;47463;49.884;10.010;2023-02-28T12:45:01;103080;;;2.4;57
61571;BME280;47463;49.884;10.010;2023-02-28T12:50:02;103080;;;2.4;57
61571;BME280;47463;49.884;10.010;2023-02-28T12:55:02;103080;;;2.4;56
61571;BME280;47463;49.884;10.010;2023-02-28T13:00:01;103070;;;2.5;56
61571;BME280;47463;49.884;10.010;2023-02-28T13:05:04;103070;;;2.7;56
61571;BME280;47463;49.884;10.010;2023-02-28T13:10:02;103070;;;2.8;57
61571;BME280;47463;49.884;10.010;2023-02-28T13:15:03;103050;;;2.7;56
61571;BME280;47463;49.884;10.010;2023-02-28T13:20:01;103059.99999999999;;;2.8;56
61571;BME280;47463;49.884;10.010;2023-02-28T13:25:01;103059.99999999999;;;2.8;56
61571;BME280;47463;49.884;10.010;2023-02-28T13:30:01;103070;;;2.7;56
61571;BME280;47463;49.884;10.010;2023-02-28T13:35:37;103050;;;3;57
61571;BME280;47463;49.884;10.010;2023-02-28T13:40:07;103059.99999999999;;;2.8;55
61571;BME280;47463;49.884;10.010;2023-02-28T13:45:20;103050;;;2.7;56
61571;BME280;47463;49.884;10.010;2023-02-28T13:50:33;103050;;;2.9;56
61571;BME280;47463;49.884;10.010;2023-02-28T13:55:19;103050;;;3.2;57
61571;BME280;47463;49.884;10.010;2023-02-28T14:00:05;103050;;;3.2;55
61571;BME280;47463;49.884;10.010;2023-02-28T14:05:01;103040.00000000001;;;3.3;55
61571;BME280;47463;49.884;10.010;2023-02-28T14:10:02;103040.00000000001;;;3.2;55
61571;BME280;47463;49.884;10.010;2023-02-28T14:15:01;103030;;;3.2;55
61571;BME280;47463;49.884;10.010;2023-02-28T14:20:01;103030;;;3.4;56
61571;BME280;47463;49.884;10.010;2023-02-28T14:25:06;103030;;;3.4;55
61571;BME280;47463;49.884;10.010;2023-02-28T14:30:04;103030;;;3.4;55
61571;BME280;47463;49.884;10.010;2023-02-28T14:35:03;103020;;;3.4;55
61571;BME280;47463;49.884;10.010;2023-02-28T14:40:01;103020;;;3.4;55
61571;BME280;47463;49.884;10.010;2023-02-28T14:45:01;103009.99999999999;;;3.3;54
61571;BME280;47463;49.884;10.010;2023-02-28T14:50:01;103009.99999999999;;;3.4;56
61571;BME280;47463;49.884;10.010;2023-02-28T14:55:02;103009.99999999999;;;3.6;55
61571;BME280;47463;49.884;10.010;2023-02-28T15:00:03;103000;;;3.5;55
61571;BME280;47463;49.884;10.010;2023-02-28T15:05:01;103000;;;3.4;54
61571;BME280;47463;49.884;10.010;2023-02-28T15:10:17;103020;;;3.5;54
61571;BME280;47463;49.884;10.010;2023-02-28T15:15:01;103000;;;3.4;54
61571;BME280;47463;49.884;10.010;2023-02-28T15:20:01;103009.99999999999;;;3.4;54
61571;BME280;47463;49.884;10.010;2023-02-28T15:25:01;103000;;;3.4;54
61571;BME280;47463;49.884;10.010;2023-02-28T15:30:05;102990.00000000001;;;3.4;55
61571;BME280;47463;49.884;10.010;2023-02-28T15:35:16;103000;;;3.2;55
61571;BME280;47463;49.884;10.010;2023-02-28T15:40:05;103000;;;3;56
61571;BME280;47463;49.884;10.010;2023-02-28T15:45:01;103000;;;2.8;57
61571;BME280;47463;49.884;10.010;2023-02-28T15:50:02;102990.00000000001;;;2.7;58
61571;BME280;47463;49.884;10.010;2023-02-28T15:55:07;103000;;;2.5;59
61571;BME280;47463;49.884;10.010;2023-02-28T16:00:02;102980;;;2.3;60
61571;BME280;47463;49.884;10.010;2023-02-28T16:05:12;102990.00000000001;;;2.2;60
61571;BME280;47463;49.884;10.010;2023-02-28T16:10:01;102990.00000000001;;;2.1;61
61571;BME280;47463;49.884;10.010;2023-02-28T16:15:01;102990.00000000001;;;2.1;60
61571;BME280;47463;49.884;10.010;2023-02-28T16:20:01;103000;;;2.1;60
61571;BME280;47463;49.884;10.010;2023-02-28T16:25:01;103000;;;2;60
61571;BME280;47463;49.884;10.010;2023-02-28T16:30:01;103009.99979999999;;;1.9;61
61571;BME280;47463;49.884;10.010;2023-02-28T16:35:01;103000;;;1.8;61
61571;BME280;47463;49.884;10.010;2023-02-28T16:45:01;103009.99979999999;;;1.4;63
61571;BME280;47463;49.884;10.010;2023-02-28T16:50:01;103000;;;1;66
61571;BME280;47463;49.884;10.010;2023-02-28T16:55:01;103009.99999999999;;;0.8;68
61571;BME280;47463;49.884;10.010;2023-02-28T17:00:01;103009.99999999999;;;0.6;68
61571;BME280;47463;49.884;10.010;2023-02-28T17:05:01;103020;;;0.5;69
61571;BME280;47463;49.884;10.010;2023-02-28T17:10:01;103020;;;0.6;68
61571;BME280;47463;49.884;10.010;2023-02-28T17:15:01;103030;;;0.5;69
61571;BME280;47463;49.884;10.010;2023-02-28T17:20:01;103040.00000000001;;;0.4;69
61571;BME280;47463;49.884;10.010;2023-02-28T17:25:01;103040.00000000001;;;0.4;70
61571;BME280;47463;49.884;10.010;2023-02-28T17:30:01;103059.99999999999;;;0.5;69
61571;BME280;47463;49.884;10.010;2023-02-28T17:35:01;103059.99999999999;;;0.4;69
61571;BME280;47463;49.884;10.010;2023-02-28T17:40:01;103059.99999999999;;;0.2;70
61571;BME280;47463;49.884;10.010;2023-02-28T17:45:01;103070;;;0.3;69
61571;BME280;47463;49.884;10.010;2023-02-28T17:50:01;103059.99999999999;;;0.3;69
61571;BME280;47463;49.884;10.010;2023-02-28T17:55:01;103070;;;0.2;69
61571;BME280;47463;49.884;10.010;2023-02-28T18:00:01;103080;;;0.1;70
61571;BME280;47463;49.884;10.010;2023-02-28T18:05:01;103080;;;0.1;71
61571;BME280;47463;49.884;10.010;2023-02-28T18:10:01;103080;;;0.1;71
61571;BME280;47463;49.884;10.010;2023-02-28T18:15:01;103080;;;-0.2;72
61571;BME280;47463;49.884;10.010;2023-02-28T18:20:01;103080;;;-0.2;72
61571;BME280;47463;49.884;10.010;2023-02-28T18:25:01;103080;;;-0.1;71
61571;BME280;47463;49.884;10.010;2023-02-28T18:30:01;103070;;;-0.2;71
61571;BME280;47463;49.884;10.010;2023-02-28T18:35:01;103080;;;-0.2;71
61571;BME280;47463;49.884;10.010;2023-02-28T18:40:01;103090.00000000001;;;-0.3;72
61571;BME280;47463;49.884;10.010;2023-02-28T18:45:01;103090.00000000001;;;-0.4;72
61571;BME280;47463;49.884;10.010;2023-02-28T18:50:01;103100;;;-0.5;72
61571;BME280;47463;49.884;10.010;2023-02-28T18:55:01;103100;;;-0.6;73
61571;BME280;47463;49.884;10.010;2023-02-28T19:00:01;103109.99999999999;;;-0.4;73
61571;BME280;47463;49.884;10.010;2023-02-28T19:05:01;103100;;;-0.3;72
61571;BME280;47463;49.884;10.010;2023-02-28T19:10:01;103100;;;-0.4;73
61571;BME280;47463;49.884;10.010;2023-02-28T19:15:01;103100;;;-0.4;73
61571;BME280;47463;49.884;10.010;2023-02-28T19:20:01;103109.99999999999;;;-0.4;73
61571;BME280;47463;49.884;10.010;2023-02-28T19:25:01;103100;;;-0.4;73
61571;BME280;47463;49.884;10.010;2023-02-28T19:30:01;103100;;;-0.4;73
61571;BME280;47463;49.884;10.010;2023-02-28T19:35:01;103109.99999999999;;;-0.6;74
61571;BME280;47463;49.884;10.010;2023-02-28T19:40:01;103109.99999999999;;;-0.5;73
61571;BME280;47463;49.884;10.010;2023-02-28T19:45:01;103109.99999999999;;;-0.7;74
61571;BME280;47463;49.884;10.010;2023-02-28T19:50:01;103100;;;-0.7;74
61571;BME280;47463;49.884;10.010;2023-02-28T19:55:01;103100;;;-0.7;74
61571;BME280;47463;49.884;10.010;2023-02-28T20:00:01;103109.99999999999;;;-0.7;74
61571;BME280;47463;49.884;10.010;2023-02-28T20:05:01;103109.99999999999;;;-0.8;74
61571;BME280;47463;49.884;10.010;2023-02-28T20:10:01;103109.99999999999;;;-0.9;75
61571;BME280;47463;49.884;10.010;2023-02-28T20:15:01;103109.99999999999;;;-1;76
61571;BME280;47463;49.884;10.010;2023-02-28T20:20:01;103109.99999999999;;;-1;76
61571;BME280;47463;49.884;10.010;2023-02-28T20:25:01;103109.99999999999;;;-1.1;76
61571;BME280;47463;49.884;10.010;2023-02-28T20:30:01;103109.99999999999;;;-1;76
61571;BME280;47463;49.884;10.010;2023-02-28T20:35:01;103109.99999999999;;;-1.1;76
61571;BME280;47463;49.884;10.010;2023-02-28T20:40:01;103100;;;-1.2;77
61571;BME280;47463;49.884;10.010;2023-02-28T20:45:01;103100;;;-1.3;77
61571;BME280;47463;49.884;10.010;2023-02-28T20:50:01;103100;;;-1.2;77
61571;BME280;47463;49.884;10.010;2023-02-28T20:55:01;103109.99999999999;;;-1.3;78
61571;BME280;47463;49.884;10.010;2023-02-28T21:00:01;103100;;;-1.3;78
61571;BME280;47463;49.884;10.010;2023-02-28T21:05:01;103100;;;-1.2;77
61571;BME280;47463;49.884;10.010;2023-02-28T21:10:01;103090.00000000001;;;-1.2;78
61571;BME280;47463;49.884;10.010;2023-02-28T21:15:01;103090.00000000001;;;-1.3;78
61571;BME280;47463;49.884;10.010;2023-02-28T21:20:01;103100;;;-1.4;79
61571;BME280;47463;49.884;10.010;2023-02-28T21:25:01;103100;;;-1.5;80
61571;BME280;47463;49.884;10.010;2023-02-28T21:30:01;103109.99999999999;;;-1.6;80
61571;BME280;47463;49.884;10.010;2023-02-28T21:35:01;103109.99999999999;;;-1.6;80
61571;BME280;47463;49.884;10.010;2023-02-28T21:40:01;103100;;;-1.6;80
61571;BME280;47463;49.884;10.010;2023-02-28T21:45:01;103109.99999999999;;;-1.6;80
61571;BME280;47463;49.884;10.010;2023-02-28T21:50:01;103100;;;-1.6;80
61571;BME280;47463;49.884;10.010;2023-02-28T21:55:01;103100;;;-1.7;80
61571;BME280;47463;49.884;10.010;2023-02-28T22:00:01;103100;;;-1.8;81
61571;BME280;47463;49.884;10.010;2023-02-28T22:05:01;103109.99999999999;;;-1.8;81
61571;BME280;47463;49.884;10.010;2023-02-28T22:10:01;103100;;;-1.8;81
61571;BME280;47463;49.884;10.010;2023-02-28T22:15:01;103120;;;-1.9;81
61571;BME280;47463;49.884;10.010;2023-02-28T22:20:01;103120;;;-1.9;81
61571;BME280;47463;49.884;10.010;2023-02-28T22:25:01;103120;;;-2;81
61571;BME280;47463;49.884;10.010;2023-02-28T22:30:01;103120;;;-2.1;82
61571;BME280;47463;49.884;10.010;2023-02-28T22:35:01;103120;;;-2.1;82
61571;BME280;47463;49.884;10.010;2023-02-28T22:40:01;103120;;;-2.3;83
61571;BME280;47463;49.884;10.010;2023-02-28T22:45:01;103120;;;-2.3;83
61571;BME280;47463;49.884;10.010;2023-02-28T22:50:01;103120;;;-2.3;83
61571;BME280;47463;49.884;10.010;2023-02-28T22:55:01;103120;;;-2.4;83
61571;BME280;47463;49.884;10.010;2023-02-28T23:00:01;103109.99999999999;;;-2.4;83
61571;BME280;47463;49.884;10.010;2023-02-28T23:05:01;103109.99999999999;;;-2.5;83
61571;BME280;47463;49.884;10.010;2023-02-28T23:10:02;103120;;;-2.5;84
61571;BME280;47463;49.884;10.010;2023-02-28T23:15:01;103120;;;-2.3;83
61571;BME280;47463;49.884;10.010;2023-02-28T23:20:01;103120;;;-2.2;82
61571;BME280;47463;49.884;10.010;2023-02-28T23:25:01;103120;;;-2.2;82
61571;BME280;47463;49.884;10.010;2023-02-28T23:30:01;103130;;;-2.2;82
61571;BME280;47463;49.884;10.010;2023-02-28T23:35:01;103120;;;-2.2;82
61571;BME280;47463;49.884;10.010;2023-02-28T23:40:01;103130;;;-2.3;83
61571;BME280;47463;49.884;10.010;2023-02-28T23:45:01;103130;;;-2.3;83
61571;BME280;47463;49.884;10.010;2023-02-28T23:50:01;103120;;;-2.3;83
61571;BME280;47463;49.884;10.010;2023-02-28T23:55:01;103130;;;-2.4;83
